ETD98V EBBR-OMAA
Flight info
| Callsign | ETD98V |
|---|---|
| Flight time | 6h 13m |
| Altitude | 35000 |
| Route | SOPOK Y863 OGLOR DCT EMGOD L607 ULNOK DCT VIBOM DCT NOMBO DCT RIDAR DCT LATLO DCT OBEDI DCT CEPRA/N0476F370 DCT ZAG DCT SOMUN DCT SOSEK DCT NISVA DCT USALI DCT RODIP DCT BELGI UT38 VESAR DCT BALMA UR655 CAK UN310 LATEB N310 BASEM R785 RASLI P559 TRF R23 NEVOL N318 TAMRO/N0478F390 T503 KSA N687 KINIB Z511 GISRA L681 ORLEK DCT KUPRO/N0493F350 N300 KAXOB Q415 UKILI |
| Aircraft | A346/H-SDE2E3FGHIJ3J4J5M1RWXY/LB1D1 |
Departure
| Time | 2026-05-07 10:10 |
|---|---|
| Airport | Brussels Airport (EBBR) |
Arrival
| Time | 2026-05-07 16:23 |
|---|---|
| Airport | Zayed International Airport (OMAA) |
| Time | Latitude | Longitude | Altitude | Speed | Heading |
|---|---|---|---|---|---|
| 2026-05-07 09:21 | 50.89895 | 4.48619 | 139 ft | 0 kts | 335° |
| 2026-05-07 09:55 | 50.89896 | 4.48619 | 139 ft | 0 kts | 335° |
| 2026-05-07 09:57 | 50.89880 | 4.48630 | 140 ft | 2 kts | 335° |
| 2026-05-07 09:57 | 50.89857 | 4.48647 | 142 ft | 4 kts | 335° |
| 2026-05-07 09:57 | 50.89851 | 4.48651 | 142 ft | 0 kts | 335° |
| 2026-05-07 10:02 | 50.89857 | 4.48648 | 142 ft | 1 kts | 346° |
| 2026-05-07 10:03 | 50.89869 | 4.48658 | 140 ft | 3 kts | 50° |
| 2026-05-07 10:03 | 50.89878 | 4.48703 | 142 ft | 6 kts | 76° |
| 2026-05-07 10:03 | 50.89886 | 4.48776 | 142 ft | 7 kts | 85° |
| 2026-05-07 10:03 | 50.89884 | 4.48854 | 144 ft | 6 kts | 89° |
| 2026-05-07 10:04 | 50.89893 | 4.48923 | 144 ft | 7 kts | 70° |
| 2026-05-07 10:04 | 50.89913 | 4.49001 | 144 ft | 9 kts | 66° |
| 2026-05-07 10:04 | 50.89942 | 4.49099 | 144 ft | 11 kts | 65° |
| 2026-05-07 10:04 | 50.89975 | 4.49230 | 142 ft | 14 kts | 70° |
| 2026-05-07 10:05 | 50.90021 | 4.49390 | 134 ft | 17 kts | 64° |
| 2026-05-07 10:05 | 50.90081 | 4.49570 | 133 ft | 19 kts | 62° |
| 2026-05-07 10:05 | 50.90146 | 4.49768 | 134 ft | 21 kts | 63° |
| 2026-05-07 10:05 | 50.90196 | 4.49920 | 129 ft | 12 kts | 63° |
| 2026-05-07 10:06 | 50.90238 | 4.50049 | 131 ft | 14 kts | 63° |
| 2026-05-07 10:06 | 50.90290 | 4.50197 | 130 ft | 16 kts | 52° |
| 2026-05-07 10:06 | 50.90394 | 4.50282 | 127 ft | 19 kts | 14° |
| 2026-05-07 10:06 | 50.90534 | 4.50339 | 127 ft | 22 kts | 15° |
| 2026-05-07 10:07 | 50.90692 | 4.50405 | 127 ft | 25 kts | 14° |
| 2026-05-07 10:07 | 50.90854 | 4.50471 | 124 ft | 22 kts | 14° |
| 2026-05-07 10:07 | 50.90982 | 4.50522 | 126 ft | 13 kts | 11° |
| 2026-05-07 10:07 | 50.91068 | 4.50528 | 126 ft | 13 kts | 354° |
| 2026-05-07 10:08 | 50.91161 | 4.50498 | 124 ft | 14 kts | 336° |
| 2026-05-07 10:08 | 50.91220 | 4.50419 | 123 ft | 11 kts | 303° |
| 2026-05-07 10:08 | 50.91243 | 4.50301 | 128 ft | 10 kts | 283° |
| 2026-05-07 10:08 | 50.91231 | 4.50213 | 125 ft | 3 kts | 247° |
| 2026-05-07 10:09 | 50.91222 | 4.50177 | 123 ft | 6 kts | 247° |
| 2026-05-07 10:09 | 50.91160 | 4.49959 | 125 ft | 49 kts | 245° |
| 2026-05-07 10:09 | 50.90935 | 4.49182 | 127 ft | 105 kts | 245° |
| 2026-05-07 10:09 | 50.90559 | 4.47875 | 128 ft | 152 kts | 245° |
| 2026-05-07 10:10 | 50.90059 | 4.46159 | 218 ft | 184 kts | 245° |
| 2026-05-07 10:10 | 50.89532 | 4.44325 | 778 ft | 181 kts | 246° |
| 2026-05-07 10:10 | 50.89014 | 4.42514 | 1369 ft | 180 kts | 246° |
| 2026-05-07 10:10 | 50.88478 | 4.40712 | 1879 ft | 183 kts | 235° |
| 2026-05-07 10:11 | 50.87425 | 4.39552 | 2201 ft | 195 kts | 188° |
| 2026-05-07 10:11 | 50.86093 | 4.39964 | 2511 ft | 205 kts | 149° |
| 2026-05-07 10:11 | 50.85048 | 4.41555 | 2890 ft | 215 kts | 122° |
| 2026-05-07 10:11 | 50.84256 | 4.43649 | 3250 ft | 228 kts | 124° |
| 2026-05-07 10:12 | 50.83288 | 4.45748 | 3557 ft | 245 kts | 126° |
| 2026-05-07 10:12 | 50.82616 | 4.47223 | 3827 ft | 255 kts | 126° |
| 2026-05-07 10:12 | 50.81215 | 4.50361 | 4518 ft | 269 kts | 126° |
| 2026-05-07 10:12 | 50.80127 | 4.52785 | 5253 ft | 271 kts | 126° |
| 2026-05-07 10:13 | 50.79025 | 4.55224 | 6008 ft | 273 kts | 126° |
| 2026-05-07 10:13 | 50.77911 | 4.57676 | 6768 ft | 276 kts | 126° |
| 2026-05-07 10:13 | 50.77151 | 4.59345 | 7284 ft | 278 kts | 126° |
| 2026-05-07 10:13 | 50.76013 | 4.61839 | 8028 ft | 281 kts | 126° |
| 2026-05-07 10:14 | 50.74836 | 4.64329 | 8781 ft | 284 kts | 129° |
| 2026-05-07 10:14 | 50.73545 | 4.66717 | 9503 ft | 287 kts | 131° |
| 2026-05-07 10:14 | 50.72219 | 4.69099 | 10224 ft | 290 kts | 131° |
| 2026-05-07 10:14 | 50.70875 | 4.71509 | 10702 ft | 303 kts | 130° |
| 2026-05-07 10:15 | 50.69613 | 4.74292 | 11022 ft | 320 kts | 120° |
| 2026-05-07 10:15 | 50.68663 | 4.77572 | 11330 ft | 337 kts | 109° |
| 2026-05-07 10:15 | 50.67924 | 4.81192 | 11656 ft | 354 kts | 107° |
| 2026-05-07 10:15 | 50.67192 | 4.85000 | 11954 ft | 371 kts | 107° |
| 2026-05-07 10:16 | 50.66430 | 4.88969 | 12352 ft | 383 kts | 107° |
| 2026-05-07 10:16 | 50.65646 | 4.93018 | 13010 ft | 387 kts | 107° |
| 2026-05-07 10:16 | 50.64850 | 4.97093 | 13736 ft | 390 kts | 107° |
| 2026-05-07 10:16 | 50.64043 | 5.01197 | 14398 ft | 394 kts | 107° |
| 2026-05-07 10:17 | 50.63224 | 5.05343 | 15052 ft | 398 kts | 107° |
| 2026-05-07 10:17 | 50.62395 | 5.09525 | 15684 ft | 401 kts | 107° |
| 2026-05-07 10:17 | 50.61556 | 5.13746 | 16300 ft | 405 kts | 107° |
| 2026-05-07 10:17 | 50.60707 | 5.18002 | 16905 ft | 409 kts | 107° |
| 2026-05-07 10:18 | 50.59850 | 5.22294 | 17497 ft | 412 kts | 107° |
| 2026-05-07 10:18 | 50.58966 | 5.26616 | 18070 ft | 416 kts | 110° |
| 2026-05-07 10:18 | 50.57713 | 5.30734 | 18604 ft | 420 kts | 121° |
| 2026-05-07 10:18 | 50.56010 | 5.34426 | 19168 ft | 422 kts | 131° |
| 2026-05-07 10:19 | 50.53911 | 5.37686 | 19721 ft | 425 kts | 138° |
| 2026-05-07 10:19 | 50.51691 | 5.40793 | 20259 ft | 429 kts | 139° |
| 2026-05-07 10:19 | 50.49442 | 5.43901 | 20758 ft | 433 kts | 139° |
| 2026-05-07 10:19 | 50.47168 | 5.47045 | 21269 ft | 436 kts | 139° |
| 2026-05-07 10:20 | 50.44888 | 5.50207 | 21768 ft | 439 kts | 139° |
| 2026-05-07 10:20 | 50.42590 | 5.53401 | 22264 ft | 442 kts | 139° |
| 2026-05-07 10:20 | 50.40279 | 5.56615 | 22741 ft | 445 kts | 139° |
| 2026-05-07 10:20 | 50.37953 | 5.59849 | 23209 ft | 449 kts | 139° |
| 2026-05-07 10:21 | 50.35606 | 5.63109 | 23649 ft | 452 kts | 139° |
| 2026-05-07 10:21 | 50.33246 | 5.66382 | 24096 ft | 455 kts | 139° |
| 2026-05-07 10:21 | 50.30861 | 5.69685 | 24524 ft | 459 kts | 139° |
| 2026-05-07 10:21 | 50.28469 | 5.73028 | 24941 ft | 462 kts | 136° |
| 2026-05-07 10:22 | 50.26372 | 5.76861 | 25312 ft | 466 kts | 124° |
| 2026-05-07 10:22 | 50.24804 | 5.81240 | 25718 ft | 468 kts | 114° |
| 2026-05-07 10:22 | 50.23759 | 5.86074 | 26125 ft | 471 kts | 105° |
| 2026-05-07 10:22 | 50.22922 | 5.91041 | 26547 ft | 473 kts | 104° |
| 2026-05-07 10:23 | 50.22105 | 5.96051 | 26922 ft | 476 kts | 104° |
| 2026-05-07 10:23 | 50.21277 | 6.01077 | 27293 ft | 479 kts | 104° |
| 2026-05-07 10:23 | 50.20429 | 6.06128 | 27661 ft | 482 kts | 105° |
| 2026-05-07 10:23 | 50.19576 | 6.11225 | 28030 ft | 484 kts | 103° |
| 2026-05-07 10:24 | 50.18955 | 6.16410 | 28389 ft | 487 kts | 97° |
| 2026-05-07 10:24 | 50.18659 | 6.21693 | 28784 ft | 488 kts | 92° |
| 2026-05-07 10:24 | 50.18697 | 6.26995 | 29287 ft | 486 kts | 86° |
| 2026-05-07 10:24 | 50.18979 | 6.32252 | 29811 ft | 484 kts | 84° |
| 2026-05-07 10:25 | 50.19310 | 6.37476 | 30316 ft | 483 kts | 84° |
| 2026-05-07 10:25 | 50.19650 | 6.42693 | 30779 ft | 482 kts | 84° |
| 2026-05-07 10:25 | 50.19983 | 6.47903 | 31223 ft | 481 kts | 84° |
| 2026-05-07 10:25 | 50.20306 | 6.53113 | 31646 ft | 481 kts | 84° |
| 2026-05-07 10:26 | 50.20623 | 6.58315 | 32074 ft | 480 kts | 84° |
| 2026-05-07 10:26 | 50.20855 | 6.63528 | 32501 ft | 479 kts | 88° |
| 2026-05-07 10:26 | 50.20906 | 6.68661 | 32918 ft | 478 kts | 91° |
| 2026-05-07 10:26 | 50.20834 | 6.73849 | 33313 ft | 477 kts | 91° |
| 2026-05-07 10:27 | 50.20742 | 6.79046 | 33643 ft | 478 kts | 91° |
| 2026-05-07 10:27 | 50.20643 | 6.84253 | 33951 ft | 479 kts | 91° |
| 2026-05-07 10:27 | 50.20543 | 6.89472 | 34236 ft | 480 kts | 91° |
| 2026-05-07 10:27 | 50.20442 | 6.94703 | 34517 ft | 481 kts | 91° |
| 2026-05-07 10:28 | 50.20340 | 6.99933 | 34794 ft | 482 kts | 91° |
| 2026-05-07 10:28 | 50.20235 | 7.05194 | 35035 ft | 484 kts | 92° |
| 2026-05-07 10:28 | 50.20127 | 7.10452 | 35361 ft | 483 kts | 92° |
| 2026-05-07 10:28 | 50.20018 | 7.15694 | 35739 ft | 481 kts | 92° |
| 2026-05-07 10:29 | 50.19894 | 7.20914 | 36070 ft | 480 kts | 93° |
| 2026-05-07 10:29 | 50.19627 | 7.26100 | 36377 ft | 478 kts | 96° |
| 2026-05-07 10:29 | 50.19190 | 7.31186 | 36650 ft | 478 kts | 99° |
| 2026-05-07 10:30 | 50.17778 | 7.41330 | 36998 ft | 478 kts | 105° |
| 2026-05-07 10:30 | 50.16811 | 7.46306 | 36999 ft | 479 kts | 108° |
| 2026-05-07 10:30 | 50.14708 | 7.56208 | 37006 ft | 480 kts | 108° |
| 2026-05-07 10:31 | 50.12601 | 7.66100 | 37007 ft | 480 kts | 108° |
| 2026-05-07 10:31 | 50.10492 | 7.75981 | 37005 ft | 479 kts | 108° |
| 2026-05-07 10:32 | 50.08169 | 7.85720 | 37006 ft | 479 kts | 114° |
| 2026-05-07 10:32 | 50.05193 | 7.95037 | 37006 ft | 479 kts | 120° |
| 2026-05-07 10:33 | 50.01625 | 8.03766 | 37008 ft | 479 kts | 124° |
| 2026-05-07 10:33 | 49.97884 | 8.12326 | 37007 ft | 478 kts | 124° |
| 2026-05-07 10:34 | 49.94141 | 8.20884 | 37007 ft | 478 kts | 124° |
| 2026-05-07 10:34 | 49.90387 | 8.29443 | 37007 ft | 478 kts | 124° |
| 2026-05-07 10:35 | 49.86631 | 8.37975 | 37006 ft | 478 kts | 124° |
| 2026-05-07 10:35 | 49.82671 | 8.46245 | 37006 ft | 477 kts | 129° |
| 2026-05-07 10:36 | 49.78530 | 8.54298 | 37006 ft | 477 kts | 129° |
| 2026-05-07 10:36 | 49.74380 | 8.62348 | 37006 ft | 477 kts | 129° |
| 2026-05-07 10:37 | 49.70247 | 8.70336 | 37007 ft | 479 kts | 129° |
| 2026-05-07 10:37 | 49.66072 | 8.78379 | 37006 ft | 479 kts | 129° |
| 2026-05-07 10:38 | 49.61878 | 8.86434 | 37006 ft | 480 kts | 129° |
| 2026-05-07 10:38 | 49.57683 | 8.94465 | 37007 ft | 480 kts | 129° |
| 2026-05-07 10:39 | 49.53518 | 9.02412 | 37007 ft | 480 kts | 129° |
| 2026-05-07 10:39 | 49.49318 | 9.10401 | 37006 ft | 479 kts | 129° |
| 2026-05-07 10:40 | 49.45319 | 9.18627 | 37006 ft | 480 kts | 124° |
| 2026-05-07 10:40 | 49.41667 | 9.27215 | 37006 ft | 479 kts | 123° |
| 2026-05-07 10:41 | 49.38012 | 9.35784 | 37006 ft | 479 kts | 123° |
| 2026-05-07 10:41 | 49.34350 | 9.44341 | 37007 ft | 479 kts | 123° |
| 2026-05-07 10:42 | 49.30679 | 9.52889 | 37006 ft | 479 kts | 123° |
| 2026-05-07 10:42 | 49.27005 | 9.61418 | 37006 ft | 479 kts | 123° |
| 2026-05-07 10:43 | 49.23349 | 9.69879 | 37006 ft | 479 kts | 123° |
| 2026-05-07 10:43 | 49.19656 | 9.78395 | 37007 ft | 480 kts | 123° |
| 2026-05-07 10:44 | 49.15951 | 9.86912 | 37006 ft | 480 kts | 124° |
| 2026-05-07 10:44 | 49.12243 | 9.95405 | 37006 ft | 480 kts | 124° |
| 2026-05-07 10:45 | 49.08496 | 10.03846 | 37005 ft | 480 kts | 126° |
| 2026-05-07 10:45 | 49.04304 | 10.11775 | 37005 ft | 480 kts | 132° |
| 2026-05-07 10:46 | 48.99633 | 10.19061 | 37006 ft | 480 kts | 135° |
| 2026-05-07 10:46 | 48.94925 | 10.26201 | 37006 ft | 480 kts | 135° |
| 2026-05-07 10:47 | 48.90184 | 10.33379 | 37007 ft | 480 kts | 135° |
| 2026-05-07 10:47 | 48.85437 | 10.40544 | 37006 ft | 480 kts | 135° |
| 2026-05-07 10:48 | 48.80685 | 10.47695 | 37006 ft | 480 kts | 135° |
| 2026-05-07 10:48 | 48.75934 | 10.54823 | 37006 ft | 480 kts | 135° |
| 2026-05-07 10:49 | 48.71171 | 10.61949 | 37006 ft | 480 kts | 135° |
| 2026-05-07 10:49 | 48.66410 | 10.69049 | 37006 ft | 480 kts | 135° |
| 2026-05-07 10:50 | 48.61692 | 10.76207 | 37006 ft | 480 kts | 133° |
| 2026-05-07 10:50 | 48.57402 | 10.83937 | 37007 ft | 480 kts | 127° |
| 2026-05-07 10:51 | 48.53620 | 10.92263 | 37007 ft | 480 kts | 123° |
| 2026-05-07 10:51 | 48.49963 | 11.00633 | 37007 ft | 480 kts | 123° |
| 2026-05-07 10:52 | 48.46270 | 11.09052 | 37006 ft | 480 kts | 123° |
| 2026-05-07 10:52 | 48.42573 | 11.17451 | 37006 ft | 480 kts | 123° |
| 2026-05-07 10:53 | 48.38867 | 11.25845 | 37006 ft | 481 kts | 124° |
| 2026-05-07 10:53 | 48.35151 | 11.34234 | 37006 ft | 481 kts | 124° |
| 2026-05-07 10:54 | 48.31431 | 11.42606 | 37006 ft | 481 kts | 124° |
| 2026-05-07 10:54 | 48.27734 | 11.50903 | 37007 ft | 480 kts | 124° |
| 2026-05-07 10:55 | 48.24006 | 11.59242 | 37007 ft | 480 kts | 124° |
| 2026-05-07 10:55 | 48.20269 | 11.67575 | 37006 ft | 481 kts | 124° |
| 2026-05-07 10:56 | 48.16528 | 11.75892 | 37006 ft | 481 kts | 124° |
| 2026-05-07 10:56 | 48.12776 | 11.84209 | 37006 ft | 481 kts | 124° |
| 2026-05-07 10:57 | 48.09018 | 11.92511 | 37006 ft | 481 kts | 124° |
| 2026-05-07 10:57 | 48.05256 | 12.00799 | 37006 ft | 481 kts | 124° |
| 2026-05-07 10:58 | 48.01485 | 12.09081 | 37006 ft | 481 kts | 124° |
| 2026-05-07 10:58 | 47.97738 | 12.17284 | 37006 ft | 480 kts | 124° |
| 2026-05-07 10:59 | 47.93963 | 12.25525 | 37006 ft | 480 kts | 124° |
| 2026-05-07 10:59 | 47.90170 | 12.33779 | 37006 ft | 481 kts | 124° |
| 2026-05-07 11:00 | 47.87022 | 12.40611 | 37007 ft | 481 kts | 124° |
| 2026-05-07 11:00 | 47.82600 | 12.50177 | 37006 ft | 481 kts | 124° |
| 2026-05-07 11:01 | 47.79412 | 12.57051 | 37006 ft | 481 kts | 124° |
| 2026-05-07 11:01 | 47.75612 | 12.65222 | 37008 ft | 483 kts | 125° |
| 2026-05-07 11:02 | 47.71776 | 12.73445 | 37008 ft | 485 kts | 125° |
| 2026-05-07 11:02 | 47.67660 | 12.81389 | 37008 ft | 484 kts | 131° |
| 2026-05-07 11:03 | 47.63030 | 12.88631 | 37005 ft | 484 kts | 135° |
| 2026-05-07 11:03 | 47.58284 | 12.95636 | 37004 ft | 483 kts | 135° |
| 2026-05-07 11:04 | 47.53503 | 13.02685 | 37003 ft | 485 kts | 135° |
| 2026-05-07 11:04 | 47.48679 | 13.09776 | 37008 ft | 490 kts | 135° |
| 2026-05-07 11:05 | 47.43867 | 13.16830 | 37005 ft | 486 kts | 135° |
| 2026-05-07 11:05 | 47.39071 | 13.23838 | 37005 ft | 482 kts | 135° |
| 2026-05-07 11:06 | 47.34333 | 13.30917 | 37007 ft | 485 kts | 132° |
| 2026-05-07 11:06 | 47.30028 | 13.38613 | 37007 ft | 488 kts | 126° |
| 2026-05-07 11:07 | 47.26050 | 13.46702 | 37005 ft | 489 kts | 126° |
| 2026-05-07 11:07 | 47.22045 | 13.54822 | 37007 ft | 490 kts | 126° |
| 2026-05-07 11:08 | 47.18037 | 13.62921 | 37006 ft | 487 kts | 126° |
| 2026-05-07 11:08 | 47.14035 | 13.70981 | 37008 ft | 488 kts | 126° |
| 2026-05-07 11:09 | 47.10058 | 13.78968 | 37003 ft | 486 kts | 126° |
| 2026-05-07 11:09 | 47.06051 | 13.86992 | 37006 ft | 486 kts | 126° |
| 2026-05-07 11:10 | 47.02041 | 13.94997 | 37003 ft | 488 kts | 126° |
| 2026-05-07 11:10 | 46.98009 | 14.03025 | 37008 ft | 488 kts | 126° |
| 2026-05-07 11:11 | 46.93976 | 14.11032 | 37006 ft | 486 kts | 127° |
| 2026-05-07 11:11 | 46.89972 | 14.18956 | 37007 ft | 486 kts | 127° |
| 2026-05-07 11:12 | 46.85961 | 14.26873 | 37007 ft | 483 kts | 127° |
| 2026-05-07 11:12 | 46.81947 | 14.34772 | 37004 ft | 484 kts | 127° |
| 2026-05-07 11:13 | 46.77932 | 14.42652 | 37007 ft | 482 kts | 127° |
| 2026-05-07 11:13 | 46.73923 | 14.50498 | 37006 ft | 482 kts | 127° |
| 2026-05-07 11:14 | 46.69907 | 14.58335 | 37006 ft | 481 kts | 127° |
| 2026-05-07 11:14 | 46.65918 | 14.66097 | 37007 ft | 481 kts | 127° |
| 2026-05-07 11:15 | 46.61898 | 14.73897 | 37006 ft | 481 kts | 127° |
| 2026-05-07 11:15 | 46.57875 | 14.81681 | 37006 ft | 481 kts | 127° |
| 2026-05-07 11:16 | 46.53846 | 14.89456 | 37006 ft | 481 kts | 127° |
| 2026-05-07 11:16 | 46.49803 | 14.97232 | 37006 ft | 482 kts | 127° |
| 2026-05-07 11:17 | 46.45742 | 15.05024 | 37007 ft | 483 kts | 127° |
| 2026-05-07 11:17 | 46.41684 | 15.12782 | 37005 ft | 482 kts | 127° |
| 2026-05-07 11:18 | 46.37700 | 15.20545 | 37005 ft | 483 kts | 124° |
| 2026-05-07 11:18 | 46.34089 | 15.28762 | 37008 ft | 482 kts | 122° |
| 2026-05-07 11:19 | 46.30557 | 15.36992 | 37006 ft | 480 kts | 122° |
| 2026-05-07 11:19 | 46.27016 | 15.45213 | 37007 ft | 480 kts | 122° |
| 2026-05-07 11:20 | 46.23473 | 15.53412 | 37007 ft | 480 kts | 122° |
| 2026-05-07 11:20 | 46.19951 | 15.61539 | 37006 ft | 479 kts | 122° |
| 2026-05-07 11:21 | 46.16405 | 15.69699 | 37006 ft | 480 kts | 122° |
| 2026-05-07 11:21 | 46.12850 | 15.77852 | 37007 ft | 479 kts | 122° |
| 2026-05-07 11:22 | 46.09290 | 15.85995 | 37006 ft | 479 kts | 122° |
| 2026-05-07 11:22 | 46.05727 | 15.94121 | 37006 ft | 479 kts | 122° |
| 2026-05-07 11:23 | 46.02158 | 16.02236 | 37006 ft | 479 kts | 122° |
| 2026-05-07 11:23 | 45.98584 | 16.10337 | 37006 ft | 479 kts | 122° |
| 2026-05-07 11:24 | 45.95020 | 16.18392 | 37006 ft | 480 kts | 122° |
| 2026-05-07 11:24 | 45.91422 | 16.26495 | 37007 ft | 479 kts | 122° |
| 2026-05-07 11:25 | 45.87842 | 16.34562 | 37007 ft | 478 kts | 122° |
| 2026-05-07 11:25 | 45.84273 | 16.42635 | 37006 ft | 478 kts | 122° |
| 2026-05-07 11:26 | 45.80695 | 16.50701 | 37006 ft | 478 kts | 122° |
| 2026-05-07 11:26 | 45.77113 | 16.58745 | 37006 ft | 478 kts | 123° |
| 2026-05-07 11:27 | 45.73524 | 16.66779 | 37007 ft | 478 kts | 123° |
| 2026-05-07 11:27 | 45.69929 | 16.74804 | 37007 ft | 479 kts | 123° |
| 2026-05-07 11:28 | 45.66320 | 16.82835 | 37006 ft | 479 kts | 123° |
| 2026-05-07 11:28 | 45.62732 | 16.90797 | 37007 ft | 479 kts | 123° |
| 2026-05-07 11:29 | 45.59116 | 16.98800 | 37007 ft | 478 kts | 123° |
| 2026-05-07 11:29 | 45.55496 | 17.06787 | 37006 ft | 478 kts | 123° |
| 2026-05-07 11:30 | 45.51872 | 17.14763 | 37006 ft | 479 kts | 123° |
| 2026-05-07 11:30 | 45.48237 | 17.22738 | 37006 ft | 479 kts | 123° |
| 2026-05-07 11:31 | 45.44618 | 17.30657 | 37006 ft | 480 kts | 123° |
| 2026-05-07 11:31 | 45.40958 | 17.38642 | 37004 ft | 481 kts | 123° |
| 2026-05-07 11:32 | 45.35446 | 17.50628 | 37007 ft | 480 kts | 123° |
| 2026-05-07 11:33 | 45.31770 | 17.58592 | 37007 ft | 479 kts | 123° |
| 2026-05-07 11:33 | 45.28101 | 17.66519 | 37006 ft | 480 kts | 123° |
| 2026-05-07 11:34 | 45.24449 | 17.74389 | 37007 ft | 479 kts | 123° |
| 2026-05-07 11:34 | 45.20774 | 17.82284 | 37006 ft | 479 kts | 123° |
| 2026-05-07 11:35 | 45.17098 | 17.90160 | 37006 ft | 478 kts | 123° |
| 2026-05-07 11:35 | 45.13417 | 17.98026 | 37006 ft | 478 kts | 123° |
| 2026-05-07 11:36 | 45.09732 | 18.05878 | 37006 ft | 478 kts | 124° |
| 2026-05-07 11:36 | 45.06037 | 18.13730 | 37006 ft | 478 kts | 124° |
| 2026-05-07 11:37 | 45.02331 | 18.21585 | 37006 ft | 479 kts | 124° |
| 2026-05-07 11:37 | 44.98625 | 18.29417 | 37007 ft | 479 kts | 124° |
| 2026-05-07 11:38 | 44.94911 | 18.37243 | 37006 ft | 478 kts | 124° |
| 2026-05-07 11:38 | 44.91198 | 18.45048 | 37006 ft | 478 kts | 124° |
| 2026-05-07 11:39 | 44.87476 | 18.52851 | 37006 ft | 479 kts | 124° |
| 2026-05-07 11:39 | 44.83741 | 18.60657 | 37007 ft | 478 kts | 124° |
| 2026-05-07 11:40 | 44.80011 | 18.68433 | 37006 ft | 479 kts | 124° |
| 2026-05-07 11:40 | 44.76273 | 18.76203 | 37006 ft | 479 kts | 124° |
| 2026-05-07 11:41 | 44.72531 | 18.83962 | 37007 ft | 479 kts | 124° |
| 2026-05-07 11:41 | 44.68800 | 18.91673 | 37006 ft | 479 kts | 124° |
| 2026-05-07 11:42 | 44.65042 | 18.99420 | 37006 ft | 480 kts | 124° |
| 2026-05-07 11:42 | 44.61274 | 19.07165 | 37006 ft | 480 kts | 124° |
| 2026-05-07 11:43 | 44.57689 | 19.15094 | 37007 ft | 480 kts | 121° |
| 2026-05-07 11:43 | 44.54254 | 19.23128 | 37007 ft | 479 kts | 121° |
| 2026-05-07 11:44 | 44.50819 | 19.31133 | 37006 ft | 479 kts | 121° |
| 2026-05-07 11:44 | 44.47373 | 19.39138 | 37006 ft | 479 kts | 121° |
| 2026-05-07 11:45 | 44.43917 | 19.47144 | 37006 ft | 480 kts | 121° |
| 2026-05-07 11:45 | 44.40451 | 19.55149 | 37006 ft | 479 kts | 121° |
| 2026-05-07 11:46 | 44.37568 | 19.61792 | 37007 ft | 480 kts | 121° |
| 2026-05-07 11:46 | 44.33534 | 19.71060 | 37006 ft | 480 kts | 121° |
| 2026-05-07 11:47 | 44.30616 | 19.77745 | 37006 ft | 480 kts | 121° |
| 2026-05-07 11:47 | 44.27130 | 19.85712 | 37007 ft | 480 kts | 121° |
| 2026-05-07 11:48 | 44.23642 | 19.93660 | 37006 ft | 480 kts | 121° |
| 2026-05-07 11:48 | 44.20169 | 20.01552 | 37006 ft | 480 kts | 122° |
| 2026-05-07 11:49 | 44.16668 | 20.09487 | 37005 ft | 481 kts | 122° |
| 2026-05-07 11:49 | 44.13150 | 20.17437 | 37006 ft | 482 kts | 122° |
| 2026-05-07 11:50 | 44.09621 | 20.25391 | 37007 ft | 482 kts | 122° |
| 2026-05-07 11:50 | 44.06086 | 20.33337 | 37007 ft | 481 kts | 122° |
| 2026-05-07 11:51 | 44.02575 | 20.41206 | 37005 ft | 481 kts | 122° |
| 2026-05-07 11:51 | 43.99041 | 20.49105 | 37006 ft | 480 kts | 122° |
| 2026-05-07 11:52 | 43.95498 | 20.57002 | 37006 ft | 482 kts | 122° |
| 2026-05-07 11:52 | 43.91946 | 20.64899 | 37007 ft | 481 kts | 122° |
| 2026-05-07 11:53 | 43.88393 | 20.72774 | 37006 ft | 480 kts | 122° |
| 2026-05-07 11:53 | 43.84865 | 20.80572 | 37006 ft | 480 kts | 122° |
| 2026-05-07 11:54 | 43.81303 | 20.88422 | 37007 ft | 481 kts | 122° |
| 2026-05-07 11:54 | 43.77727 | 20.96291 | 37005 ft | 483 kts | 122° |
| 2026-05-07 11:55 | 43.74303 | 21.04284 | 37007 ft | 482 kts | 120° |
| 2026-05-07 11:55 | 43.70920 | 21.12288 | 37006 ft | 480 kts | 120° |
| 2026-05-07 11:56 | 43.67528 | 21.20251 | 37006 ft | 480 kts | 121° |
| 2026-05-07 11:56 | 43.64125 | 21.28194 | 37006 ft | 480 kts | 121° |
| 2026-05-07 11:57 | 43.60714 | 21.36128 | 37006 ft | 479 kts | 121° |
| 2026-05-07 11:57 | 43.57317 | 21.44004 | 37006 ft | 480 kts | 121° |
| 2026-05-07 11:58 | 43.53894 | 21.51917 | 37006 ft | 479 kts | 121° |
| 2026-05-07 11:58 | 43.50466 | 21.59821 | 37007 ft | 480 kts | 121° |
| 2026-05-07 11:59 | 43.47034 | 21.67713 | 37006 ft | 480 kts | 121° |
| 2026-05-07 11:59 | 43.43595 | 21.75599 | 37007 ft | 480 kts | 121° |
| 2026-05-07 12:00 | 43.40154 | 21.83470 | 37006 ft | 479 kts | 121° |
| 2026-05-07 12:00 | 43.36725 | 21.91292 | 37006 ft | 480 kts | 121° |
| 2026-05-07 12:01 | 43.33263 | 21.99166 | 37006 ft | 480 kts | 121° |
| 2026-05-07 12:01 | 43.29800 | 22.07023 | 37006 ft | 480 kts | 121° |
| 2026-05-07 12:02 | 43.26327 | 22.14879 | 37006 ft | 481 kts | 121° |
| 2026-05-07 12:02 | 43.22862 | 22.22697 | 37005 ft | 481 kts | 121° |
| 2026-05-07 12:03 | 43.19365 | 22.30567 | 37007 ft | 482 kts | 121° |
| 2026-05-07 12:03 | 43.15863 | 22.38425 | 37006 ft | 484 kts | 121° |
| 2026-05-07 12:04 | 43.12340 | 22.46308 | 37007 ft | 483 kts | 121° |
| 2026-05-07 12:04 | 43.08821 | 22.54160 | 37007 ft | 483 kts | 122° |
| 2026-05-07 12:05 | 43.05296 | 22.62003 | 37007 ft | 483 kts | 122° |
| 2026-05-07 12:05 | 43.01793 | 22.69776 | 37006 ft | 482 kts | 122° |
| 2026-05-07 12:06 | 42.97995 | 22.77325 | 37006 ft | 482 kts | 128° |
| 2026-05-07 12:06 | 42.93623 | 22.84283 | 37006 ft | 483 kts | 134° |
| 2026-05-07 12:07 | 42.88776 | 22.90652 | 37007 ft | 482 kts | 137° |
| 2026-05-07 12:07 | 42.83869 | 22.96914 | 37007 ft | 482 kts | 137° |
| 2026-05-07 12:08 | 42.78962 | 23.03168 | 37006 ft | 483 kts | 137° |
| 2026-05-07 12:08 | 42.74082 | 23.09376 | 37006 ft | 483 kts | 137° |
| 2026-05-07 12:09 | 42.69166 | 23.15616 | 37007 ft | 483 kts | 137° |
| 2026-05-07 12:09 | 42.64245 | 23.21846 | 37006 ft | 484 kts | 137° |
| 2026-05-07 12:10 | 42.59294 | 23.28101 | 37005 ft | 489 kts | 137° |
| 2026-05-07 12:10 | 42.54299 | 23.34398 | 37007 ft | 489 kts | 137° |
| 2026-05-07 12:11 | 42.49310 | 23.40671 | 37006 ft | 486 kts | 137° |
| 2026-05-07 12:11 | 42.44372 | 23.46866 | 37006 ft | 486 kts | 137° |
| 2026-05-07 12:12 | 42.39405 | 23.53083 | 37007 ft | 485 kts | 137° |
| 2026-05-07 12:12 | 42.34451 | 23.59268 | 37006 ft | 485 kts | 137° |
| 2026-05-07 12:13 | 42.29480 | 23.65456 | 37006 ft | 486 kts | 137° |
| 2026-05-07 12:13 | 42.24465 | 23.71590 | 37005 ft | 486 kts | 138° |
| 2026-05-07 12:14 | 42.19447 | 23.77688 | 37005 ft | 491 kts | 138° |
| 2026-05-07 12:14 | 42.14358 | 23.83863 | 37008 ft | 492 kts | 138° |
| 2026-05-07 12:15 | 42.09274 | 23.90021 | 37007 ft | 489 kts | 138° |
| 2026-05-07 12:15 | 42.04214 | 23.96136 | 37008 ft | 487 kts | 138° |
| 2026-05-07 12:16 | 41.99193 | 24.02192 | 37006 ft | 484 kts | 138° |
| 2026-05-07 12:16 | 41.94158 | 24.08249 | 37006 ft | 487 kts | 138° |
| 2026-05-07 12:17 | 41.89087 | 24.14338 | 37006 ft | 490 kts | 138° |
| 2026-05-07 12:17 | 41.83995 | 24.20438 | 37006 ft | 490 kts | 138° |
| 2026-05-07 12:18 | 41.78909 | 24.26517 | 37006 ft | 489 kts | 138° |
| 2026-05-07 12:18 | 41.73864 | 24.32534 | 37006 ft | 487 kts | 138° |
| 2026-05-07 12:19 | 41.68794 | 24.38567 | 37007 ft | 486 kts | 139° |
| 2026-05-07 12:19 | 41.63723 | 24.44588 | 37004 ft | 488 kts | 139° |
| 2026-05-07 12:20 | 41.58625 | 24.50627 | 37005 ft | 489 kts | 139° |
| 2026-05-07 12:20 | 41.53516 | 24.56665 | 37008 ft | 490 kts | 139° |
| 2026-05-07 12:21 | 41.48419 | 24.62674 | 37007 ft | 486 kts | 139° |
| 2026-05-07 12:21 | 41.43379 | 24.68603 | 37005 ft | 487 kts | 138° |
| 2026-05-07 12:22 | 41.38476 | 24.74862 | 37006 ft | 488 kts | 135° |
| 2026-05-07 12:22 | 41.33615 | 24.81219 | 37007 ft | 489 kts | 136° |
| 2026-05-07 12:23 | 41.28759 | 24.87552 | 37008 ft | 486 kts | 136° |
| 2026-05-07 12:23 | 41.23941 | 24.93822 | 37006 ft | 482 kts | 136° |
| 2026-05-07 12:24 | 41.19134 | 25.00062 | 37008 ft | 483 kts | 136° |
| 2026-05-07 12:24 | 41.14356 | 25.06253 | 37007 ft | 482 kts | 136° |
| 2026-05-07 12:25 | 41.09572 | 25.12438 | 37007 ft | 479 kts | 136° |
| 2026-05-07 12:25 | 41.04796 | 25.18599 | 37006 ft | 478 kts | 136° |
| 2026-05-07 12:26 | 41.00018 | 25.24749 | 37006 ft | 478 kts | 136° |
| 2026-05-07 12:26 | 40.95236 | 25.30891 | 37006 ft | 478 kts | 136° |
| 2026-05-07 12:27 | 40.90458 | 25.37016 | 37007 ft | 478 kts | 136° |
| 2026-05-07 12:27 | 40.85705 | 25.43095 | 37007 ft | 478 kts | 136° |
| 2026-05-07 12:28 | 40.80917 | 25.49205 | 37007 ft | 478 kts | 136° |
| 2026-05-07 12:28 | 40.76121 | 25.55314 | 37006 ft | 478 kts | 136° |
| 2026-05-07 12:29 | 40.71330 | 25.61402 | 37006 ft | 478 kts | 136° |
| 2026-05-07 12:29 | 40.66532 | 25.67486 | 37006 ft | 478 kts | 136° |
| 2026-05-07 12:30 | 40.61729 | 25.73561 | 37007 ft | 478 kts | 136° |
| 2026-05-07 12:30 | 40.56925 | 25.79625 | 37006 ft | 478 kts | 136° |
| 2026-05-07 12:31 | 40.52268 | 25.85814 | 37006 ft | 478 kts | 132° |
| 2026-05-07 12:31 | 40.48072 | 25.92615 | 37006 ft | 478 kts | 126° |
| 2026-05-07 12:32 | 40.44397 | 25.99905 | 37007 ft | 478 kts | 122° |
| 2026-05-07 12:32 | 40.40825 | 26.07282 | 37007 ft | 478 kts | 122° |
| 2026-05-07 12:33 | 40.35453 | 26.18331 | 37006 ft | 478 kts | 123° |
| 2026-05-07 12:33 | 40.31864 | 26.25686 | 37006 ft | 479 kts | 123° |
| 2026-05-07 12:34 | 40.28288 | 26.32996 | 37006 ft | 479 kts | 123° |
| 2026-05-07 12:34 | 40.24683 | 26.40349 | 37006 ft | 479 kts | 123° |
| 2026-05-07 12:35 | 40.21683 | 26.46455 | 37007 ft | 479 kts | 123° |
| 2026-05-07 12:35 | 40.18071 | 26.53788 | 37006 ft | 479 kts | 123° |
| 2026-05-07 12:36 | 40.14451 | 26.61123 | 37004 ft | 480 kts | 123° |
| 2026-05-07 12:36 | 40.10812 | 26.68478 | 37007 ft | 482 kts | 123° |
| 2026-05-07 12:37 | 40.07167 | 26.75827 | 37007 ft | 481 kts | 123° |
| 2026-05-07 12:37 | 40.03519 | 26.83164 | 37007 ft | 481 kts | 123° |
| 2026-05-07 12:38 | 39.99873 | 26.90480 | 37006 ft | 480 kts | 123° |
| 2026-05-07 12:38 | 39.96247 | 26.97741 | 37006 ft | 479 kts | 123° |
| 2026-05-07 12:39 | 39.92593 | 27.05038 | 37005 ft | 481 kts | 123° |
| 2026-05-07 12:39 | 39.88919 | 27.12358 | 37006 ft | 483 kts | 123° |
| 2026-05-07 12:40 | 39.85230 | 27.19688 | 37007 ft | 483 kts | 123° |
| 2026-05-07 12:40 | 39.81551 | 27.26982 | 37007 ft | 480 kts | 123° |
| 2026-05-07 12:41 | 39.77895 | 27.34211 | 37006 ft | 480 kts | 123° |
| 2026-05-07 12:41 | 39.74203 | 27.41484 | 37007 ft | 482 kts | 123° |
| 2026-05-07 12:42 | 39.70503 | 27.48755 | 37006 ft | 481 kts | 123° |
| 2026-05-07 12:42 | 39.66807 | 27.56028 | 37006 ft | 482 kts | 123° |
| 2026-05-07 12:43 | 39.63114 | 27.63276 | 37007 ft | 480 kts | 123° |
| 2026-05-07 12:43 | 39.59418 | 27.70507 | 37006 ft | 481 kts | 123° |
| 2026-05-07 12:44 | 39.55737 | 27.77690 | 37006 ft | 480 kts | 124° |
| 2026-05-07 12:44 | 39.52032 | 27.84903 | 37006 ft | 480 kts | 124° |
| 2026-05-07 12:45 | 39.48331 | 27.92103 | 37006 ft | 480 kts | 124° |
| 2026-05-07 12:45 | 39.44619 | 27.99303 | 37006 ft | 480 kts | 124° |
| 2026-05-07 12:46 | 39.40899 | 28.06499 | 37007 ft | 481 kts | 124° |
| 2026-05-07 12:46 | 39.37194 | 28.13646 | 37006 ft | 480 kts | 124° |
| 2026-05-07 12:47 | 39.33460 | 28.20830 | 37006 ft | 481 kts | 124° |
| 2026-05-07 12:47 | 39.29711 | 28.28029 | 37006 ft | 482 kts | 124° |
| 2026-05-07 12:48 | 39.25960 | 28.35233 | 37005 ft | 482 kts | 124° |
| 2026-05-07 12:48 | 39.22207 | 28.42421 | 37006 ft | 482 kts | 124° |
| 2026-05-07 12:49 | 39.18473 | 28.49552 | 37006 ft | 482 kts | 124° |
| 2026-05-07 12:49 | 39.14708 | 28.56724 | 37005 ft | 483 kts | 124° |
| 2026-05-07 12:50 | 39.10909 | 28.63946 | 37005 ft | 488 kts | 124° |
| 2026-05-07 12:50 | 39.07092 | 28.71184 | 37006 ft | 487 kts | 124° |
| 2026-05-07 12:51 | 39.03281 | 28.78395 | 37005 ft | 487 kts | 124° |
| 2026-05-07 12:51 | 38.99465 | 28.85598 | 37006 ft | 486 kts | 124° |
| 2026-05-07 12:52 | 38.95652 | 28.92779 | 37007 ft | 485 kts | 124° |
| 2026-05-07 12:52 | 38.91837 | 28.99949 | 37006 ft | 486 kts | 124° |
| 2026-05-07 12:53 | 38.88019 | 29.07107 | 37004 ft | 485 kts | 124° |
| 2026-05-07 12:53 | 38.84191 | 29.14268 | 37007 ft | 486 kts | 124° |
| 2026-05-07 12:54 | 38.80385 | 29.21374 | 37006 ft | 484 kts | 124° |
| 2026-05-07 12:54 | 38.76567 | 29.28484 | 37005 ft | 484 kts | 124° |
| 2026-05-07 12:55 | 38.72732 | 29.35608 | 37007 ft | 486 kts | 124° |
| 2026-05-07 12:55 | 38.68883 | 29.42740 | 37006 ft | 486 kts | 124° |
| 2026-05-07 12:56 | 38.65012 | 29.49840 | 37007 ft | 485 kts | 126° |
| 2026-05-07 12:56 | 38.61046 | 29.56829 | 37006 ft | 485 kts | 126° |
| 2026-05-07 12:57 | 38.57063 | 29.63813 | 37006 ft | 485 kts | 126° |
| 2026-05-07 12:57 | 38.53110 | 29.70747 | 37006 ft | 485 kts | 126° |
| 2026-05-07 12:58 | 38.49119 | 29.77738 | 37006 ft | 488 kts | 126° |
| 2026-05-07 12:58 | 38.45100 | 29.84767 | 37007 ft | 489 kts | 126° |
| 2026-05-07 12:59 | 38.41091 | 29.91762 | 37005 ft | 487 kts | 126° |
| 2026-05-07 12:59 | 38.37081 | 29.98743 | 37004 ft | 488 kts | 126° |
| 2026-05-07 13:00 | 38.33077 | 30.05695 | 37006 ft | 490 kts | 126° |
| 2026-05-07 13:00 | 38.29043 | 30.12687 | 37007 ft | 489 kts | 126° |
| 2026-05-07 13:01 | 38.25023 | 30.19658 | 37006 ft | 487 kts | 126° |
| 2026-05-07 13:01 | 38.21011 | 30.26606 | 37006 ft | 487 kts | 126° |
| 2026-05-07 13:02 | 38.16984 | 30.33557 | 37007 ft | 488 kts | 126° |
| 2026-05-07 13:02 | 38.12951 | 30.40498 | 37003 ft | 489 kts | 127° |
| 2026-05-07 13:03 | 38.08898 | 30.47458 | 37007 ft | 487 kts | 127° |
| 2026-05-07 13:03 | 38.04878 | 30.54346 | 37005 ft | 491 kts | 127° |
| 2026-05-07 13:04 | 38.00798 | 30.61318 | 37008 ft | 490 kts | 127° |
| 2026-05-07 13:04 | 37.96744 | 30.68242 | 37006 ft | 488 kts | 127° |
| 2026-05-07 13:05 | 37.92697 | 30.75170 | 37007 ft | 488 kts | 127° |
| 2026-05-07 13:05 | 37.88652 | 30.82075 | 37007 ft | 487 kts | 127° |
| 2026-05-07 13:06 | 37.84614 | 30.88950 | 37006 ft | 485 kts | 127° |
| 2026-05-07 13:06 | 37.80577 | 30.95807 | 37005 ft | 486 kts | 127° |
| 2026-05-07 13:07 | 37.76548 | 31.02635 | 37006 ft | 487 kts | 127° |
| 2026-05-07 13:07 | 37.72484 | 31.09509 | 37007 ft | 489 kts | 127° |
| 2026-05-07 13:08 | 37.68403 | 31.16396 | 37008 ft | 489 kts | 127° |
| 2026-05-07 13:08 | 37.64330 | 31.23256 | 37004 ft | 488 kts | 127° |
| 2026-05-07 13:09 | 37.60224 | 31.30158 | 37006 ft | 494 kts | 127° |
| 2026-05-07 13:09 | 37.56098 | 31.37078 | 37007 ft | 491 kts | 127° |
| 2026-05-07 13:10 | 37.51998 | 31.43939 | 37007 ft | 488 kts | 127° |
| 2026-05-07 13:10 | 37.47936 | 31.50722 | 37007 ft | 487 kts | 127° |
| 2026-05-07 13:11 | 37.43843 | 31.57541 | 37004 ft | 489 kts | 127° |
| 2026-05-07 13:11 | 37.39717 | 31.64401 | 37006 ft | 490 kts | 127° |
| 2026-05-07 13:12 | 37.35600 | 31.71234 | 37006 ft | 489 kts | 127° |
| 2026-05-07 13:12 | 37.31476 | 31.78063 | 37004 ft | 490 kts | 127° |
| 2026-05-07 13:13 | 37.27340 | 31.84891 | 37006 ft | 491 kts | 127° |
| 2026-05-07 13:13 | 37.23192 | 31.91723 | 37007 ft | 491 kts | 127° |
| 2026-05-07 13:14 | 37.19045 | 31.98539 | 37006 ft | 491 kts | 127° |
| 2026-05-07 13:14 | 37.14922 | 32.05301 | 37006 ft | 492 kts | 127° |
| 2026-05-07 13:15 | 37.10755 | 32.12121 | 37007 ft | 492 kts | 127° |
| 2026-05-07 13:15 | 37.06589 | 32.18926 | 37006 ft | 492 kts | 128° |
| 2026-05-07 13:16 | 37.02414 | 32.25730 | 37005 ft | 492 kts | 128° |
| 2026-05-07 13:16 | 36.98237 | 32.32523 | 37007 ft | 491 kts | 128° |
| 2026-05-07 13:17 | 36.94060 | 32.39301 | 37006 ft | 492 kts | 128° |
| 2026-05-07 13:17 | 36.89873 | 32.46080 | 37007 ft | 492 kts | 128° |
| 2026-05-07 13:18 | 36.85689 | 32.52855 | 37007 ft | 492 kts | 128° |
| 2026-05-07 13:18 | 36.81534 | 32.59578 | 37006 ft | 491 kts | 128° |
| 2026-05-07 13:19 | 36.77350 | 32.66328 | 37006 ft | 492 kts | 128° |
| 2026-05-07 13:19 | 36.73167 | 32.73059 | 37007 ft | 488 kts | 128° |
| 2026-05-07 13:20 | 36.69017 | 32.79724 | 37005 ft | 486 kts | 128° |
| 2026-05-07 13:20 | 36.64852 | 32.86399 | 37006 ft | 489 kts | 128° |
| 2026-05-07 13:21 | 36.60674 | 32.93081 | 37006 ft | 487 kts | 128° |
| 2026-05-07 13:21 | 36.56504 | 32.99737 | 37004 ft | 485 kts | 128° |
| 2026-05-07 13:22 | 36.52357 | 33.06343 | 37006 ft | 488 kts | 128° |
| 2026-05-07 13:22 | 36.48166 | 33.13006 | 37006 ft | 490 kts | 128° |
| 2026-05-07 13:23 | 36.43959 | 33.19680 | 37006 ft | 489 kts | 128° |
| 2026-05-07 13:23 | 36.39757 | 33.26330 | 37007 ft | 488 kts | 128° |
| 2026-05-07 13:24 | 36.36273 | 33.31838 | 37006 ft | 486 kts | 128° |
| 2026-05-07 13:24 | 36.32082 | 33.38448 | 37006 ft | 486 kts | 128° |
| 2026-05-07 13:25 | 36.27901 | 33.45023 | 37007 ft | 484 kts | 128° |
| 2026-05-07 13:25 | 36.23730 | 33.51568 | 37006 ft | 484 kts | 128° |
| 2026-05-07 13:26 | 36.19586 | 33.58059 | 37007 ft | 482 kts | 128° |
| 2026-05-07 13:26 | 36.15428 | 33.64558 | 37007 ft | 479 kts | 128° |
| 2026-05-07 13:27 | 36.11281 | 33.71027 | 37007 ft | 479 kts | 128° |
| 2026-05-07 13:27 | 36.07134 | 33.77483 | 37006 ft | 479 kts | 128° |
| 2026-05-07 13:28 | 36.02976 | 33.83942 | 37006 ft | 479 kts | 128° |
| 2026-05-07 13:28 | 35.98824 | 33.90381 | 37006 ft | 479 kts | 129° |
| 2026-05-07 13:29 | 35.94433 | 33.96569 | 37006 ft | 479 kts | 134° |
| 2026-05-07 13:29 | 35.89565 | 34.02092 | 37006 ft | 479 kts | 141° |
| 2026-05-07 13:30 | 35.84199 | 34.06961 | 37006 ft | 478 kts | 147° |
| 2026-05-07 13:30 | 35.78503 | 34.11217 | 37007 ft | 478 kts | 149° |
| 2026-05-07 13:31 | 35.72777 | 34.15411 | 37007 ft | 478 kts | 149° |
| 2026-05-07 13:31 | 35.67054 | 34.19600 | 37007 ft | 478 kts | 149° |
| 2026-05-07 13:32 | 35.61328 | 34.23786 | 37006 ft | 478 kts | 149° |
| 2026-05-07 13:32 | 35.55600 | 34.27968 | 37006 ft | 479 kts | 149° |
| 2026-05-07 13:33 | 35.49866 | 34.32147 | 37007 ft | 479 kts | 149° |
| 2026-05-07 13:33 | 35.44134 | 34.36318 | 37007 ft | 478 kts | 149° |
| 2026-05-07 13:34 | 35.35574 | 34.42534 | 37007 ft | 478 kts | 149° |
| 2026-05-07 13:35 | 35.29806 | 34.46713 | 37006 ft | 478 kts | 149° |
| 2026-05-07 13:35 | 35.24104 | 34.50838 | 37006 ft | 478 kts | 149° |
| 2026-05-07 13:36 | 35.18368 | 34.54980 | 37006 ft | 478 kts | 149° |
| 2026-05-07 13:36 | 35.12627 | 34.59119 | 37007 ft | 478 kts | 149° |
| 2026-05-07 13:37 | 35.06886 | 34.63252 | 37006 ft | 478 kts | 149° |
| 2026-05-07 13:37 | 35.01127 | 34.67390 | 37317 ft | 480 kts | 149° |
| 2026-05-07 13:37 | 34.98258 | 34.69450 | 37705 ft | 478 kts | 149° |
| 2026-05-07 13:38 | 34.95400 | 34.71499 | 38040 ft | 476 kts | 149° |
| 2026-05-07 13:38 | 34.92535 | 34.73552 | 38307 ft | 476 kts | 149° |
| 2026-05-07 13:38 | 34.89679 | 34.75596 | 38538 ft | 476 kts | 150° |
| 2026-05-07 13:38 | 34.86825 | 34.77637 | 38758 ft | 476 kts | 150° |
| 2026-05-07 13:39 | 34.83994 | 34.79660 | 38959 ft | 477 kts | 150° |
| 2026-05-07 13:39 | 34.78271 | 34.83746 | 39008 ft | 477 kts | 150° |
| 2026-05-07 13:40 | 34.72539 | 34.87830 | 39000 ft | 477 kts | 150° |
| 2026-05-07 13:40 | 34.66805 | 34.91908 | 39006 ft | 477 kts | 150° |
| 2026-05-07 13:41 | 34.61072 | 34.95978 | 39005 ft | 477 kts | 150° |
| 2026-05-07 13:41 | 34.55417 | 35.00194 | 39000 ft | 477 kts | 143° |
| 2026-05-07 13:42 | 34.50518 | 35.05609 | 39007 ft | 477 kts | 131° |
| 2026-05-07 13:42 | 34.46716 | 35.12200 | 39005 ft | 478 kts | 118° |
| 2026-05-07 13:43 | 34.44146 | 35.19632 | 39011 ft | 478 kts | 109° |
| 2026-05-07 13:43 | 34.42046 | 35.27234 | 39006 ft | 478 kts | 108° |
| 2026-05-07 13:44 | 34.39935 | 35.34875 | 39002 ft | 478 kts | 109° |
| 2026-05-07 13:44 | 34.37803 | 35.42514 | 39008 ft | 478 kts | 109° |
| 2026-05-07 13:45 | 34.35664 | 35.50136 | 39006 ft | 478 kts | 109° |
| 2026-05-07 13:45 | 34.33517 | 35.57760 | 39001 ft | 478 kts | 109° |
| 2026-05-07 13:46 | 34.31365 | 35.65376 | 39011 ft | 478 kts | 109° |
| 2026-05-07 13:46 | 34.28967 | 35.72880 | 39009 ft | 479 kts | 114° |
| 2026-05-07 13:47 | 34.26185 | 35.80224 | 39005 ft | 480 kts | 115° |
| 2026-05-07 13:47 | 34.23379 | 35.87578 | 39001 ft | 483 kts | 115° |
| 2026-05-07 13:48 | 34.20536 | 35.95018 | 39002 ft | 489 kts | 115° |
| 2026-05-07 13:48 | 34.17687 | 36.02460 | 39005 ft | 493 kts | 115° |
| 2026-05-07 13:49 | 34.14803 | 36.09979 | 39011 ft | 490 kts | 115° |
| 2026-05-07 13:49 | 34.11943 | 36.17417 | 39005 ft | 486 kts | 115° |
| 2026-05-07 13:50 | 34.09090 | 36.24817 | 39005 ft | 485 kts | 115° |
| 2026-05-07 13:50 | 34.06228 | 36.32222 | 39003 ft | 488 kts | 115° |
| 2026-05-07 13:51 | 34.03361 | 36.39642 | 39004 ft | 492 kts | 114° |
| 2026-05-07 13:51 | 34.00660 | 36.47255 | 39006 ft | 493 kts | 113° |
| 2026-05-07 13:52 | 33.97978 | 36.54874 | 39006 ft | 491 kts | 113° |
| 2026-05-07 13:52 | 33.95218 | 36.62402 | 39012 ft | 489 kts | 114° |
| 2026-05-07 13:53 | 33.92399 | 36.69869 | 39012 ft | 488 kts | 114° |
| 2026-05-07 13:53 | 33.89588 | 36.77318 | 39008 ft | 487 kts | 114° |
| 2026-05-07 13:54 | 33.86793 | 36.84722 | 39004 ft | 484 kts | 114° |
| 2026-05-07 13:54 | 33.84021 | 36.92055 | 39009 ft | 484 kts | 114° |
| 2026-05-07 13:55 | 33.81228 | 36.99430 | 39005 ft | 484 kts | 114° |
| 2026-05-07 13:55 | 33.78424 | 37.06816 | 39008 ft | 485 kts | 115° |
| 2026-05-07 13:56 | 33.75621 | 37.14183 | 39005 ft | 483 kts | 115° |
| 2026-05-07 13:56 | 33.72820 | 37.21529 | 39010 ft | 483 kts | 115° |
| 2026-05-07 13:57 | 33.70010 | 37.28881 | 39004 ft | 483 kts | 115° |
| 2026-05-07 13:57 | 33.67211 | 37.36188 | 39012 ft | 483 kts | 115° |
| 2026-05-07 13:58 | 33.64397 | 37.43514 | 39005 ft | 483 kts | 115° |
| 2026-05-07 13:58 | 33.61577 | 37.50840 | 39013 ft | 483 kts | 115° |
| 2026-05-07 13:59 | 33.58420 | 37.57950 | 39004 ft | 483 kts | 124° |
| 2026-05-07 13:59 | 33.54126 | 37.64131 | 39005 ft | 482 kts | 136° |
| 2026-05-07 14:00 | 33.48847 | 37.69088 | 39014 ft | 482 kts | 148° |
| 2026-05-07 14:00 | 33.42905 | 37.72804 | 39011 ft | 482 kts | 154° |
| 2026-05-07 14:01 | 33.36890 | 37.76224 | 39002 ft | 482 kts | 155° |
| 2026-05-07 14:01 | 33.30828 | 37.79655 | 39008 ft | 481 kts | 155° |
| 2026-05-07 14:02 | 33.24772 | 37.83091 | 39010 ft | 482 kts | 155° |
| 2026-05-07 14:02 | 33.18720 | 37.86525 | 39004 ft | 482 kts | 155° |
| 2026-05-07 14:03 | 33.12662 | 37.89957 | 39005 ft | 482 kts | 155° |
| 2026-05-07 14:03 | 33.06604 | 37.93384 | 39005 ft | 482 kts | 155° |
| 2026-05-07 14:04 | 33.00537 | 37.96809 | 39010 ft | 482 kts | 155° |
| 2026-05-07 14:04 | 32.94479 | 38.00228 | 39004 ft | 482 kts | 154° |
| 2026-05-07 14:05 | 32.88474 | 38.03777 | 39006 ft | 482 kts | 153° |
| 2026-05-07 14:05 | 32.82522 | 38.07332 | 39008 ft | 482 kts | 153° |
| 2026-05-07 14:06 | 32.76528 | 38.10904 | 39009 ft | 482 kts | 153° |
| 2026-05-07 14:06 | 32.70530 | 38.14466 | 39009 ft | 482 kts | 154° |
| 2026-05-07 14:07 | 32.64534 | 38.18020 | 39015 ft | 482 kts | 154° |
| 2026-05-07 14:07 | 32.58525 | 38.21575 | 39004 ft | 482 kts | 154° |
| 2026-05-07 14:08 | 32.52523 | 38.25121 | 39005 ft | 482 kts | 154° |
| 2026-05-07 14:08 | 32.46517 | 38.28663 | 39005 ft | 482 kts | 154° |
| 2026-05-07 14:09 | 32.40502 | 38.32205 | 39004 ft | 482 kts | 154° |
| 2026-05-07 14:09 | 32.34494 | 38.35739 | 39004 ft | 482 kts | 154° |
| 2026-05-07 14:10 | 32.28477 | 38.39271 | 39004 ft | 482 kts | 154° |
| 2026-05-07 14:10 | 32.22494 | 38.42779 | 39002 ft | 482 kts | 154° |
| 2026-05-07 14:11 | 32.16476 | 38.46302 | 39004 ft | 483 kts | 154° |
| 2026-05-07 14:11 | 32.11467 | 38.49229 | 39016 ft | 483 kts | 154° |
| 2026-05-07 14:12 | 32.05441 | 38.52746 | 39006 ft | 483 kts | 154° |
| 2026-05-07 14:12 | 31.99411 | 38.56259 | 39010 ft | 483 kts | 154° |
| 2026-05-07 14:13 | 31.93378 | 38.59769 | 39008 ft | 483 kts | 154° |
| 2026-05-07 14:13 | 31.87350 | 38.63276 | 39002 ft | 483 kts | 154° |
| 2026-05-07 14:14 | 31.81361 | 38.66758 | 39001 ft | 483 kts | 154° |
| 2026-05-07 14:14 | 31.75329 | 38.70257 | 39009 ft | 483 kts | 154° |
| 2026-05-07 14:15 | 31.69335 | 38.73843 | 39004 ft | 483 kts | 150° |
| 2026-05-07 14:15 | 31.63575 | 38.77917 | 39003 ft | 483 kts | 148° |
| 2026-05-07 14:16 | 31.57833 | 38.82046 | 39004 ft | 483 kts | 149° |
| 2026-05-07 14:16 | 31.52132 | 38.86137 | 39003 ft | 483 kts | 149° |
| 2026-05-07 14:17 | 31.46389 | 38.90250 | 39009 ft | 483 kts | 149° |
| 2026-05-07 14:17 | 31.40643 | 38.94359 | 39007 ft | 483 kts | 149° |
| 2026-05-07 14:18 | 31.34900 | 38.98460 | 39004 ft | 483 kts | 149° |
| 2026-05-07 14:18 | 31.29189 | 39.02533 | 39015 ft | 483 kts | 149° |
| 2026-05-07 14:19 | 31.23449 | 39.06620 | 39003 ft | 483 kts | 149° |
| 2026-05-07 14:19 | 31.17703 | 39.10705 | 39005 ft | 483 kts | 149° |
| 2026-05-07 14:20 | 31.11953 | 39.14787 | 39006 ft | 483 kts | 149° |
| 2026-05-07 14:20 | 31.06200 | 39.18866 | 39006 ft | 484 kts | 149° |
| 2026-05-07 14:21 | 31.00445 | 39.22940 | 39007 ft | 484 kts | 149° |
| 2026-05-07 14:21 | 30.94686 | 39.27011 | 39006 ft | 484 kts | 149° |
| 2026-05-07 14:22 | 30.88922 | 39.31079 | 39005 ft | 484 kts | 149° |
| 2026-05-07 14:22 | 30.83192 | 39.35118 | 39007 ft | 484 kts | 149° |
| 2026-05-07 14:23 | 30.77419 | 39.39182 | 39004 ft | 484 kts | 149° |
| 2026-05-07 14:23 | 30.71664 | 39.43226 | 39006 ft | 483 kts | 149° |
| 2026-05-07 14:24 | 30.65892 | 39.47276 | 39005 ft | 483 kts | 149° |
| 2026-05-07 14:24 | 30.60164 | 39.51289 | 39007 ft | 483 kts | 149° |
| 2026-05-07 14:25 | 30.54404 | 39.55318 | 39005 ft | 483 kts | 149° |
| 2026-05-07 14:25 | 30.48679 | 39.59405 | 39001 ft | 483 kts | 146° |
| 2026-05-07 14:26 | 30.43313 | 39.64104 | 39004 ft | 483 kts | 139° |
| 2026-05-07 14:26 | 30.38458 | 39.69499 | 39002 ft | 483 kts | 133° |
| 2026-05-07 14:27 | 30.34174 | 39.75520 | 39009 ft | 484 kts | 127° |
| 2026-05-07 14:27 | 30.30155 | 39.81773 | 39006 ft | 484 kts | 127° |
| 2026-05-07 14:28 | 30.26132 | 39.88027 | 39006 ft | 484 kts | 127° |
| 2026-05-07 14:28 | 30.22105 | 39.94271 | 39002 ft | 484 kts | 127° |
| 2026-05-07 14:29 | 30.18102 | 40.00465 | 39005 ft | 484 kts | 127° |
| 2026-05-07 14:29 | 30.14067 | 40.06696 | 39007 ft | 483 kts | 127° |
| 2026-05-07 14:30 | 30.10034 | 40.12914 | 39005 ft | 483 kts | 127° |
| 2026-05-07 14:30 | 30.06004 | 40.19118 | 39005 ft | 482 kts | 127° |
| 2026-05-07 14:31 | 30.01969 | 40.25318 | 39009 ft | 482 kts | 127° |
| 2026-05-07 14:31 | 29.97905 | 40.31561 | 39008 ft | 490 kts | 127° |
| 2026-05-07 14:32 | 29.93787 | 40.37881 | 39007 ft | 493 kts | 127° |
| 2026-05-07 14:32 | 29.89683 | 40.44166 | 39007 ft | 494 kts | 127° |
| 2026-05-07 14:33 | 29.85544 | 40.50489 | 39008 ft | 494 kts | 127° |
| 2026-05-07 14:33 | 29.81395 | 40.56816 | 39003 ft | 494 kts | 127° |
| 2026-05-07 14:34 | 29.77283 | 40.63159 | 39002 ft | 494 kts | 125° |
| 2026-05-07 14:34 | 29.73554 | 40.69829 | 39006 ft | 494 kts | 122° |
| 2026-05-07 14:35 | 29.69935 | 40.76564 | 39006 ft | 494 kts | 122° |
| 2026-05-07 14:35 | 29.66308 | 40.83298 | 39007 ft | 494 kts | 122° |
| 2026-05-07 14:36 | 29.62682 | 40.90015 | 39005 ft | 494 kts | 122° |
| 2026-05-07 14:36 | 29.59046 | 40.96736 | 39006 ft | 494 kts | 122° |
| 2026-05-07 14:37 | 29.55408 | 41.03451 | 39006 ft | 494 kts | 122° |
| 2026-05-07 14:37 | 29.49965 | 41.13474 | 39011 ft | 494 kts | 122° |
| 2026-05-07 14:38 | 29.46317 | 41.20177 | 39006 ft | 494 kts | 122° |
| 2026-05-07 14:38 | 29.42668 | 41.26871 | 39005 ft | 494 kts | 122° |
| 2026-05-07 14:39 | 29.39009 | 41.33569 | 39002 ft | 494 kts | 122° |
| 2026-05-07 14:39 | 29.35355 | 41.40251 | 39007 ft | 494 kts | 122° |
| 2026-05-07 14:40 | 29.31696 | 41.46947 | 39007 ft | 494 kts | 122° |
| 2026-05-07 14:40 | 29.28059 | 41.53586 | 39014 ft | 494 kts | 122° |
| 2026-05-07 14:41 | 29.24397 | 41.60257 | 39006 ft | 494 kts | 122° |
| 2026-05-07 14:41 | 29.20726 | 41.66931 | 39006 ft | 494 kts | 122° |
| 2026-05-07 14:42 | 29.17056 | 41.73592 | 39004 ft | 494 kts | 122° |
| 2026-05-07 14:42 | 29.13382 | 41.80249 | 39004 ft | 494 kts | 122° |
| 2026-05-07 14:43 | 29.09701 | 41.86904 | 39015 ft | 494 kts | 122° |
| 2026-05-07 14:43 | 29.06014 | 41.93562 | 39007 ft | 494 kts | 122° |
| 2026-05-07 14:44 | 29.02331 | 42.00211 | 39010 ft | 494 kts | 122° |
| 2026-05-07 14:44 | 28.98673 | 42.06802 | 39008 ft | 494 kts | 122° |
| 2026-05-07 14:45 | 28.94979 | 42.13441 | 39012 ft | 494 kts | 122° |
| 2026-05-07 14:45 | 28.91282 | 42.20073 | 39006 ft | 494 kts | 122° |
| 2026-05-07 14:46 | 28.87583 | 42.26699 | 39004 ft | 494 kts | 122° |
| 2026-05-07 14:46 | 28.83881 | 42.33318 | 39008 ft | 494 kts | 122° |
| 2026-05-07 14:47 | 28.80178 | 42.39929 | 39006 ft | 494 kts | 123° |
| 2026-05-07 14:47 | 28.76468 | 42.46540 | 39004 ft | 494 kts | 123° |
| 2026-05-07 14:48 | 28.72755 | 42.53144 | 39009 ft | 494 kts | 123° |
| 2026-05-07 14:48 | 28.69063 | 42.59700 | 39005 ft | 494 kts | 123° |
| 2026-05-07 14:49 | 28.65166 | 42.66168 | 39010 ft | 494 kts | 127° |
| 2026-05-07 14:49 | 28.60723 | 42.72148 | 39003 ft | 494 kts | 133° |
| 2026-05-07 14:50 | 28.55886 | 42.77715 | 39006 ft | 494 kts | 135° |
| 2026-05-07 14:50 | 28.51020 | 42.83255 | 39009 ft | 494 kts | 135° |
| 2026-05-07 14:51 | 28.46158 | 42.88785 | 39008 ft | 494 kts | 135° |
| 2026-05-07 14:51 | 28.41290 | 42.94317 | 39010 ft | 494 kts | 135° |
| 2026-05-07 14:52 | 28.36423 | 42.99841 | 39004 ft | 494 kts | 135° |
| 2026-05-07 14:52 | 28.31562 | 43.05351 | 39008 ft | 494 kts | 135° |
| 2026-05-07 14:53 | 28.26693 | 43.10863 | 39002 ft | 494 kts | 135° |
| 2026-05-07 14:53 | 28.21850 | 43.16338 | 39005 ft | 494 kts | 135° |
| 2026-05-07 14:54 | 28.17132 | 43.21996 | 38992 ft | 494 kts | 126° |
| 2026-05-07 14:54 | 28.13772 | 43.28793 | 39013 ft | 494 kts | 117° |
| 2026-05-07 14:55 | 28.10683 | 43.35761 | 39010 ft | 494 kts | 117° |
| 2026-05-07 14:55 | 28.07567 | 43.42714 | 39002 ft | 494 kts | 117° |
| 2026-05-07 14:56 | 28.04429 | 43.49648 | 39001 ft | 494 kts | 117° |
| 2026-05-07 14:56 | 28.01281 | 43.56571 | 39008 ft | 494 kts | 117° |
| 2026-05-07 14:57 | 27.98150 | 43.63437 | 39007 ft | 493 kts | 117° |
| 2026-05-07 14:57 | 27.94992 | 43.70348 | 39006 ft | 494 kts | 117° |
| 2026-05-07 14:58 | 27.91830 | 43.77256 | 39006 ft | 494 kts | 117° |
| 2026-05-07 14:58 | 27.88666 | 43.84157 | 39001 ft | 494 kts | 117° |
| 2026-05-07 14:59 | 27.85493 | 43.91065 | 39004 ft | 494 kts | 117° |
| 2026-05-07 14:59 | 27.82343 | 43.97914 | 39005 ft | 493 kts | 117° |
| 2026-05-07 15:00 | 27.79169 | 44.04801 | 39009 ft | 495 kts | 117° |
| 2026-05-07 15:00 | 27.76484 | 44.10619 | 39013 ft | 499 kts | 117° |
| 2026-05-07 15:01 | 27.73287 | 44.17537 | 39008 ft | 499 kts | 117° |
| 2026-05-07 15:01 | 27.70065 | 44.24495 | 39009 ft | 499 kts | 117° |
| 2026-05-07 15:02 | 27.66842 | 44.31447 | 39010 ft | 499 kts | 117° |
| 2026-05-07 15:02 | 27.63613 | 44.38398 | 39007 ft | 499 kts | 117° |
| 2026-05-07 15:03 | 27.60385 | 44.45335 | 39005 ft | 499 kts | 118° |
| 2026-05-07 15:03 | 27.57150 | 44.52276 | 39006 ft | 499 kts | 118° |
| 2026-05-07 15:04 | 27.53916 | 44.59204 | 39010 ft | 499 kts | 118° |
| 2026-05-07 15:04 | 27.50680 | 44.66124 | 39005 ft | 499 kts | 118° |
| 2026-05-07 15:05 | 27.47435 | 44.73051 | 39015 ft | 498 kts | 118° |
| 2026-05-07 15:05 | 27.44187 | 44.79975 | 39007 ft | 499 kts | 118° |
| 2026-05-07 15:06 | 27.40960 | 44.86842 | 39006 ft | 499 kts | 118° |
| 2026-05-07 15:06 | 27.37707 | 44.93753 | 39005 ft | 499 kts | 118° |
| 2026-05-07 15:07 | 27.34452 | 45.00656 | 39006 ft | 499 kts | 118° |
| 2026-05-07 15:07 | 27.31191 | 45.07562 | 39002 ft | 499 kts | 118° |
| 2026-05-07 15:08 | 27.27931 | 45.14455 | 39005 ft | 499 kts | 118° |
| 2026-05-07 15:08 | 27.24662 | 45.21354 | 39005 ft | 499 kts | 118° |
| 2026-05-07 15:09 | 27.21393 | 45.28245 | 39007 ft | 499 kts | 118° |
| 2026-05-07 15:09 | 27.18120 | 45.35130 | 39007 ft | 499 kts | 118° |
| 2026-05-07 15:10 | 27.14844 | 45.42012 | 39006 ft | 499 kts | 118° |
| 2026-05-07 15:10 | 27.11587 | 45.48842 | 39010 ft | 499 kts | 118° |
| 2026-05-07 15:11 | 27.08303 | 45.55717 | 39015 ft | 499 kts | 118° |
| 2026-05-07 15:11 | 27.05016 | 45.62589 | 39007 ft | 499 kts | 118° |
| 2026-05-07 15:12 | 27.01728 | 45.69451 | 39007 ft | 499 kts | 118° |
| 2026-05-07 15:12 | 26.98437 | 45.76310 | 39005 ft | 499 kts | 118° |
| 2026-05-07 15:13 | 26.95158 | 45.83133 | 39007 ft | 499 kts | 118° |
| 2026-05-07 15:13 | 26.91860 | 45.89984 | 39005 ft | 498 kts | 118° |
| 2026-05-07 15:14 | 26.88558 | 45.96832 | 39005 ft | 498 kts | 118° |
| 2026-05-07 15:14 | 26.85256 | 46.03670 | 39016 ft | 498 kts | 118° |
| 2026-05-07 15:15 | 26.81950 | 46.10504 | 39008 ft | 498 kts | 118° |
| 2026-05-07 15:15 | 26.78660 | 46.17293 | 39004 ft | 498 kts | 118° |
| 2026-05-07 15:16 | 26.75349 | 46.24117 | 39006 ft | 498 kts | 118° |
| 2026-05-07 15:16 | 26.72033 | 46.30940 | 39010 ft | 498 kts | 118° |
| 2026-05-07 15:17 | 26.68713 | 46.37762 | 39005 ft | 498 kts | 118° |
| 2026-05-07 15:17 | 26.65391 | 46.44575 | 39004 ft | 498 kts | 118° |
| 2026-05-07 15:18 | 26.62065 | 46.51387 | 39005 ft | 498 kts | 118° |
| 2026-05-07 15:18 | 26.58732 | 46.58202 | 39011 ft | 498 kts | 118° |
| 2026-05-07 15:19 | 26.55420 | 46.64963 | 39005 ft | 498 kts | 118° |
| 2026-05-07 15:19 | 26.52083 | 46.71764 | 39006 ft | 498 kts | 119° |
| 2026-05-07 15:20 | 26.48741 | 46.78566 | 39005 ft | 498 kts | 119° |
| 2026-05-07 15:20 | 26.45399 | 46.85358 | 39006 ft | 498 kts | 119° |
| 2026-05-07 15:21 | 26.42055 | 46.92143 | 39010 ft | 499 kts | 119° |
| 2026-05-07 15:21 | 26.38701 | 46.98940 | 39011 ft | 499 kts | 119° |
| 2026-05-07 15:22 | 26.35351 | 47.05715 | 39006 ft | 499 kts | 119° |
| 2026-05-07 15:22 | 26.31998 | 47.12488 | 39011 ft | 498 kts | 119° |
| 2026-05-07 15:23 | 26.28636 | 47.19267 | 39012 ft | 498 kts | 119° |
| 2026-05-07 15:23 | 26.25296 | 47.25993 | 39005 ft | 498 kts | 119° |
| 2026-05-07 15:24 | 26.21931 | 47.32758 | 39009 ft | 498 kts | 119° |
| 2026-05-07 15:24 | 26.18561 | 47.39523 | 39008 ft | 498 kts | 119° |
| 2026-05-07 15:25 | 26.15188 | 47.46283 | 39006 ft | 498 kts | 119° |
| 2026-05-07 15:25 | 26.11815 | 47.53036 | 39010 ft | 498 kts | 119° |
| 2026-05-07 15:26 | 26.08458 | 47.59743 | 39017 ft | 498 kts | 119° |
| 2026-05-07 15:26 | 26.05081 | 47.66481 | 39005 ft | 498 kts | 119° |
| 2026-05-07 15:27 | 26.01699 | 47.73219 | 39012 ft | 498 kts | 119° |
| 2026-05-07 15:27 | 25.98318 | 47.79945 | 39005 ft | 498 kts | 119° |
| 2026-05-07 15:28 | 25.94935 | 47.86664 | 39006 ft | 498 kts | 119° |
| 2026-05-07 15:28 | 25.91547 | 47.93384 | 39013 ft | 498 kts | 119° |
| 2026-05-07 15:29 | 25.88155 | 48.00101 | 39011 ft | 498 kts | 119° |
| 2026-05-07 15:29 | 25.84762 | 48.06809 | 39006 ft | 498 kts | 119° |
| 2026-05-07 15:30 | 25.81363 | 48.13518 | 39004 ft | 498 kts | 119° |
| 2026-05-07 15:30 | 25.77986 | 48.20171 | 39006 ft | 498 kts | 119° |
| 2026-05-07 15:31 | 25.74583 | 48.26866 | 39010 ft | 498 kts | 119° |
| 2026-05-07 15:31 | 25.71535 | 48.33767 | 39009 ft | 498 kts | 112° |
| 2026-05-07 15:32 | 25.69333 | 48.41054 | 39008 ft | 498 kts | 104° |
| 2026-05-07 15:32 | 25.68011 | 48.48591 | 39011 ft | 498 kts | 97° |
| 2026-05-07 15:33 | 25.67428 | 48.56256 | 39014 ft | 498 kts | 94° |
| 2026-05-07 15:33 | 25.66952 | 48.63932 | 39003 ft | 498 kts | 94° |
| 2026-05-07 15:34 | 25.66467 | 48.71602 | 39012 ft | 498 kts | 94° |
| 2026-05-07 15:34 | 25.65972 | 48.79270 | 39002 ft | 497 kts | 94° |
| 2026-05-07 15:35 | 25.65470 | 48.86932 | 39013 ft | 497 kts | 94° |
| 2026-05-07 15:35 | 25.64968 | 48.94535 | 39012 ft | 497 kts | 94° |
| 2026-05-07 15:36 | 25.64458 | 49.02190 | 39001 ft | 497 kts | 94° |
| 2026-05-07 15:36 | 25.63944 | 49.09843 | 39012 ft | 497 kts | 94° |
| 2026-05-07 15:37 | 25.63426 | 49.17493 | 39003 ft | 497 kts | 94° |
| 2026-05-07 15:37 | 25.62901 | 49.25161 | 39008 ft | 497 kts | 94° |
| 2026-05-07 15:38 | 25.62378 | 49.32764 | 39008 ft | 497 kts | 94° |
| 2026-05-07 15:38 | 25.61852 | 49.40412 | 39001 ft | 497 kts | 94° |
| 2026-05-07 15:39 | 25.61319 | 49.48074 | 39001 ft | 497 kts | 94° |
| 2026-05-07 15:39 | 25.60780 | 49.55721 | 39013 ft | 496 kts | 94° |
| 2026-05-07 15:40 | 25.60238 | 49.63360 | 39004 ft | 496 kts | 94° |
| 2026-05-07 15:40 | 25.59691 | 49.70997 | 39000 ft | 496 kts | 94° |
| 2026-05-07 15:41 | 25.59140 | 49.78624 | 39012 ft | 496 kts | 95° |
| 2026-05-07 15:41 | 25.58588 | 49.86210 | 39008 ft | 496 kts | 95° |
| 2026-05-07 15:42 | 25.58029 | 49.93844 | 39005 ft | 496 kts | 95° |
| 2026-05-07 15:42 | 25.57465 | 50.01459 | 39010 ft | 496 kts | 95° |
| 2026-05-07 15:43 | 25.56897 | 50.09089 | 38999 ft | 496 kts | 95° |
| 2026-05-07 15:43 | 25.55978 | 50.16672 | 39001 ft | 496 kts | 101° |
| 2026-05-07 15:44 | 25.54354 | 50.24094 | 39005 ft | 495 kts | 107° |
| 2026-05-07 15:44 | 25.52197 | 50.31349 | 39008 ft | 495 kts | 109° |
| 2026-05-07 15:45 | 25.49999 | 50.38553 | 39004 ft | 495 kts | 109° |
| 2026-05-07 15:45 | 25.47793 | 50.45788 | 39012 ft | 495 kts | 109° |
| 2026-05-07 15:46 | 25.44487 | 50.56637 | 39000 ft | 495 kts | 108° |
| 2026-05-07 15:47 | 25.42675 | 50.63997 | 39003 ft | 495 kts | 102° |
| 2026-05-07 15:47 | 25.41661 | 50.70240 | 39015 ft | 495 kts | 99° |
| 2026-05-07 15:48 | 25.40587 | 50.77777 | 39009 ft | 495 kts | 99° |
| 2026-05-07 15:48 | 25.39510 | 50.85322 | 39011 ft | 495 kts | 99° |
| 2026-05-07 15:49 | 25.38425 | 50.92868 | 39009 ft | 495 kts | 99° |
| 2026-05-07 15:49 | 25.37337 | 51.00391 | 39007 ft | 495 kts | 99° |
| 2026-05-07 15:50 | 25.36251 | 51.07871 | 39002 ft | 495 kts | 99° |
| 2026-05-07 15:50 | 25.35151 | 51.15413 | 39008 ft | 495 kts | 99° |
| 2026-05-07 15:51 | 25.34048 | 51.22948 | 39000 ft | 495 kts | 99° |
| 2026-05-07 15:51 | 25.32353 | 51.34474 | 39004 ft | 495 kts | 99° |
| 2026-05-07 15:52 | 25.30125 | 51.49531 | 39003 ft | 495 kts | 99° |
| 2026-05-07 15:52 | 25.27884 | 51.64569 | 39003 ft | 495 kts | 99° |
| 2026-05-07 15:53 | 25.25621 | 51.79647 | 39007 ft | 495 kts | 99° |
| 2026-05-07 15:53 | 25.23348 | 51.94679 | 39002 ft | 495 kts | 99° |
| 2026-05-07 15:54 | 25.21063 | 52.09685 | 39000 ft | 495 kts | 99° |
| 2026-05-07 15:54 | 25.18773 | 52.24614 | 39003 ft | 495 kts | 99° |
| 2026-05-07 15:55 | 25.16792 | 52.37437 | 38943 ft | 491 kts | 99° |
| 2026-05-07 15:55 | 25.16217 | 52.41140 | 38512 ft | 487 kts | 99° |
| 2026-05-07 15:55 | 25.15644 | 52.44826 | 37820 ft | 487 kts | 99° |
| 2026-05-07 15:55 | 25.15069 | 52.48523 | 37074 ft | 488 kts | 100° |
| 2026-05-07 15:56 | 25.14408 | 52.52207 | 36347 ft | 488 kts | 103° |
| 2026-05-07 15:56 | 25.13571 | 52.55845 | 35625 ft | 488 kts | 106° |
| 2026-05-07 15:56 | 25.12555 | 52.59428 | 34862 ft | 489 kts | 109° |
| 2026-05-07 15:56 | 25.11360 | 52.62954 | 34065 ft | 491 kts | 112° |
| 2026-05-07 15:57 | 25.09984 | 52.66417 | 33233 ft | 492 kts | 115° |
| 2026-05-07 15:57 | 25.08476 | 52.69822 | 32443 ft | 494 kts | 116° |
| 2026-05-07 15:57 | 25.07054 | 52.73293 | 31730 ft | 496 kts | 113° |
| 2026-05-07 15:57 | 25.05806 | 52.76794 | 31064 ft | 498 kts | 110° |
| 2026-05-07 15:58 | 25.04704 | 52.80436 | 30313 ft | 500 kts | 107° |
| 2026-05-07 15:58 | 25.03777 | 52.84145 | 29558 ft | 502 kts | 104° |
| 2026-05-07 15:58 | 25.02921 | 52.87887 | 28864 ft | 501 kts | 104° |
| 2026-05-07 15:58 | 25.02079 | 52.91610 | 28179 ft | 497 kts | 104° |
| 2026-05-07 15:59 | 25.01248 | 52.95293 | 27660 ft | 491 kts | 104° |
| 2026-05-07 15:59 | 25.00422 | 52.98939 | 27252 ft | 488 kts | 104° |
| 2026-05-07 15:59 | 24.99599 | 53.02560 | 26718 ft | 485 kts | 104° |
| 2026-05-07 15:59 | 24.98779 | 53.06161 | 26225 ft | 481 kts | 104° |
| 2026-05-07 16:00 | 24.97963 | 53.09734 | 25706 ft | 478 kts | 104° |
| 2026-05-07 16:00 | 24.97152 | 53.13269 | 25145 ft | 473 kts | 104° |
| 2026-05-07 16:00 | 24.96348 | 53.16768 | 24640 ft | 467 kts | 104° |
| 2026-05-07 16:00 | 24.95553 | 53.20214 | 24182 ft | 460 kts | 104° |
| 2026-05-07 16:01 | 24.94768 | 53.23615 | 23740 ft | 453 kts | 104° |
| 2026-05-07 16:01 | 24.94000 | 53.26933 | 23295 ft | 447 kts | 104° |
| 2026-05-07 16:01 | 24.93236 | 53.30234 | 22861 ft | 441 kts | 104° |
| 2026-05-07 16:01 | 24.92480 | 53.33498 | 22433 ft | 436 kts | 104° |
| 2026-05-07 16:02 | 24.91732 | 53.36720 | 22006 ft | 431 kts | 105° |
| 2026-05-07 16:02 | 24.90856 | 53.39859 | 21571 ft | 426 kts | 109° |
| 2026-05-07 16:02 | 24.89759 | 53.42886 | 21134 ft | 422 kts | 114° |
| 2026-05-07 16:02 | 24.88458 | 53.45768 | 20698 ft | 418 kts | 118° |
| 2026-05-07 16:03 | 24.87059 | 53.48564 | 20274 ft | 414 kts | 119° |
| 2026-05-07 16:03 | 24.85656 | 53.51323 | 19849 ft | 410 kts | 119° |
| 2026-05-07 16:03 | 24.84260 | 53.54063 | 19421 ft | 407 kts | 119° |
| 2026-05-07 16:03 | 24.82883 | 53.56772 | 18998 ft | 404 kts | 119° |
| 2026-05-07 16:04 | 24.81516 | 53.59465 | 18574 ft | 401 kts | 119° |
| 2026-05-07 16:04 | 24.80160 | 53.62135 | 18152 ft | 398 kts | 119° |
| 2026-05-07 16:04 | 24.78814 | 53.64790 | 17729 ft | 395 kts | 119° |
| 2026-05-07 16:04 | 24.77476 | 53.67427 | 17298 ft | 392 kts | 119° |
| 2026-05-07 16:05 | 24.76165 | 53.70012 | 16889 ft | 390 kts | 119° |
| 2026-05-07 16:05 | 24.74842 | 53.72620 | 16460 ft | 388 kts | 119° |
| 2026-05-07 16:05 | 24.73532 | 53.75200 | 16120 ft | 382 kts | 119° |
| 2026-05-07 16:05 | 24.72251 | 53.77718 | 16014 ft | 374 kts | 119° |
| 2026-05-07 16:06 | 24.70972 | 53.80232 | 15885 ft | 377 kts | 119° |
| 2026-05-07 16:06 | 24.69687 | 53.82755 | 15767 ft | 377 kts | 119° |
| 2026-05-07 16:06 | 24.68401 | 53.85277 | 15640 ft | 376 kts | 119° |
| 2026-05-07 16:06 | 24.67119 | 53.87791 | 15517 ft | 376 kts | 119° |
| 2026-05-07 16:07 | 24.65841 | 53.90296 | 15396 ft | 375 kts | 119° |
| 2026-05-07 16:07 | 24.64564 | 53.92800 | 15292 ft | 375 kts | 119° |
| 2026-05-07 16:07 | 24.63361 | 53.95340 | 15186 ft | 374 kts | 115° |
| 2026-05-07 16:07 | 24.62267 | 53.97937 | 15214 ft | 374 kts | 115° |
| 2026-05-07 16:08 | 24.61187 | 54.00543 | 15222 ft | 374 kts | 114° |
| 2026-05-07 16:08 | 24.60108 | 54.03154 | 15225 ft | 374 kts | 114° |
| 2026-05-07 16:08 | 24.59026 | 54.05761 | 15225 ft | 374 kts | 115° |
| 2026-05-07 16:08 | 24.57953 | 54.08341 | 15222 ft | 374 kts | 115° |
| 2026-05-07 16:09 | 24.56868 | 54.10946 | 15089 ft | 375 kts | 115° |
| 2026-05-07 16:09 | 24.55783 | 54.13546 | 14686 ft | 371 kts | 115° |
| 2026-05-07 16:09 | 24.54709 | 54.16121 | 14276 ft | 369 kts | 115° |
| 2026-05-07 16:09 | 24.53644 | 54.18674 | 13846 ft | 366 kts | 114° |
| 2026-05-07 16:10 | 24.52692 | 54.21265 | 13426 ft | 364 kts | 111° |
| 2026-05-07 16:10 | 24.51795 | 54.23860 | 13008 ft | 362 kts | 110° |
| 2026-05-07 16:10 | 24.50909 | 54.26445 | 12608 ft | 360 kts | 110° |
| 2026-05-07 16:10 | 24.50026 | 54.29015 | 12209 ft | 358 kts | 111° |
| 2026-05-07 16:11 | 24.49146 | 54.31567 | 11815 ft | 356 kts | 111° |
| 2026-05-07 16:11 | 24.48270 | 54.34100 | 11431 ft | 353 kts | 111° |
| 2026-05-07 16:11 | 24.47402 | 54.36610 | 11001 ft | 350 kts | 111° |
| 2026-05-07 16:11 | 24.46544 | 54.39087 | 10551 ft | 342 kts | 111° |
| 2026-05-07 16:12 | 24.45717 | 54.41471 | 10126 ft | 325 kts | 111° |
| 2026-05-07 16:12 | 24.44929 | 54.43742 | 9745 ft | 309 kts | 111° |
| 2026-05-07 16:12 | 24.44177 | 54.45907 | 9353 ft | 296 kts | 111° |
| 2026-05-07 16:12 | 24.43456 | 54.47980 | 9025 ft | 287 kts | 111° |
| 2026-05-07 16:13 | 24.42744 | 54.50027 | 8646 ft | 287 kts | 111° |
| 2026-05-07 16:13 | 24.41959 | 54.52011 | 8271 ft | 286 kts | 118° |
| 2026-05-07 16:13 | 24.40863 | 54.53861 | 7847 ft | 284 kts | 127° |
| 2026-05-07 16:13 | 24.39684 | 54.55538 | 7552 ft | 277 kts | 128° |
| 2026-05-07 16:14 | 24.38504 | 54.57175 | 7243 ft | 270 kts | 128° |
| 2026-05-07 16:14 | 24.37356 | 54.58766 | 6900 ft | 262 kts | 128° |
| 2026-05-07 16:14 | 24.36247 | 54.60309 | 6580 ft | 254 kts | 128° |
| 2026-05-07 16:14 | 24.35155 | 54.61830 | 6281 ft | 253 kts | 128° |
| 2026-05-07 16:15 | 24.34067 | 54.63350 | 6057 ft | 253 kts | 128° |
| 2026-05-07 16:15 | 24.32983 | 54.64866 | 5752 ft | 252 kts | 128° |
| 2026-05-07 16:15 | 24.31904 | 54.66374 | 5447 ft | 250 kts | 128° |
| 2026-05-07 16:15 | 24.30834 | 54.67871 | 5095 ft | 248 kts | 128° |
| 2026-05-07 16:16 | 24.29786 | 54.69336 | 4759 ft | 240 kts | 128° |
| 2026-05-07 16:16 | 24.28773 | 54.70752 | 4443 ft | 231 kts | 128° |
| 2026-05-07 16:16 | 24.27797 | 54.72117 | 4142 ft | 224 kts | 128° |
| 2026-05-07 16:16 | 24.26853 | 54.73436 | 3875 ft | 214 kts | 128° |
| 2026-05-07 16:17 | 24.25961 | 54.74682 | 3575 ft | 207 kts | 128° |
| 2026-05-07 16:17 | 24.25081 | 54.75933 | 3276 ft | 201 kts | 122° |
| 2026-05-07 16:17 | 24.24737 | 54.77324 | 3179 ft | 189 kts | 82° |
| 2026-05-07 16:17 | 24.25301 | 54.78586 | 3210 ft | 186 kts | 42° |
| 2026-05-07 16:18 | 24.26318 | 54.79359 | 3192 ft | 172 kts | 27° |
| 2026-05-07 16:18 | 24.27382 | 54.79912 | 3180 ft | 164 kts | 23° |
| 2026-05-07 16:18 | 24.28417 | 54.80395 | 3176 ft | 160 kts | 22° |
| 2026-05-07 16:18 | 24.29458 | 54.80821 | 3184 ft | 160 kts | 15° |
| 2026-05-07 16:19 | 24.30536 | 54.81112 | 3191 ft | 159 kts | 11° |
| 2026-05-07 16:19 | 24.31627 | 54.81124 | 3177 ft | 158 kts | 335° |
| 2026-05-07 16:19 | 24.32503 | 54.80412 | 3159 ft | 158 kts | 315° |
| 2026-05-07 16:19 | 24.33297 | 54.79585 | 3091 ft | 157 kts | 319° |
| 2026-05-07 16:20 | 24.34166 | 54.78853 | 3007 ft | 157 kts | 328° |
| 2026-05-07 16:20 | 24.34994 | 54.78096 | 2926 ft | 157 kts | 301° |
| 2026-05-07 16:20 | 24.35436 | 54.76995 | 2661 ft | 158 kts | 293° |
| 2026-05-07 16:20 | 24.35870 | 54.75902 | 2341 ft | 155 kts | 295° |
| 2026-05-07 16:21 | 24.36378 | 54.74862 | 2042 ft | 154 kts | 304° |
| 2026-05-07 16:21 | 24.37025 | 54.73927 | 1802 ft | 154 kts | 309° |
| 2026-05-07 16:21 | 24.37714 | 54.73027 | 1624 ft | 154 kts | 311° |
| 2026-05-07 16:21 | 24.38405 | 54.72155 | 1438 ft | 153 kts | 310° |
| 2026-05-07 16:22 | 24.39020 | 54.71185 | 1252 ft | 153 kts | 303° |
| 2026-05-07 16:22 | 24.39647 | 54.70243 | 984 ft | 152 kts | 309° |
| 2026-05-07 16:22 | 24.40312 | 54.69341 | 750 ft | 152 kts | 307° |
| 2026-05-07 16:22 | 24.40948 | 54.68415 | 541 ft | 152 kts | 309° |
| 2026-05-07 16:23 | 24.41607 | 54.67514 | 321 ft | 151 kts | 307° |
| 2026-05-07 16:23 | 24.42253 | 54.66603 | 121 ft | 151 kts | 308° |
| 2026-05-07 16:23 | 24.42823 | 54.65799 | 87 ft | 108 kts | 308° |
| 2026-05-07 16:23 | 24.43153 | 54.65333 | 89 ft | 47 kts | 308° |
| 2026-05-07 16:24 | 24.43300 | 54.65127 | 90 ft | 32 kts | 308° |
| 2026-05-07 16:24 | 24.43411 | 54.64986 | 89 ft | 21 kts | 319° |
| 2026-05-07 16:24 | 24.43543 | 54.64896 | 87 ft | 24 kts | 334° |
| 2026-05-07 16:24 | 24.43696 | 54.64830 | 90 ft | 15 kts | 337° |
| 2026-05-07 16:25 | 24.43782 | 54.64753 | 86 ft | 18 kts | 308° |
| 2026-05-07 16:25 | 24.43865 | 54.64635 | 88 ft | 21 kts | 308° |
| 2026-05-07 16:25 | 24.43960 | 54.64501 | 89 ft | 23 kts | 308° |
| 2026-05-07 16:25 | 24.44043 | 54.64386 | 88 ft | 6 kts | 308° |
| 2026-05-07 16:26 | 24.44066 | 54.64353 | 86 ft | 6 kts | 308° |
| 2026-05-07 16:26 | 24.44097 | 54.64315 | 89 ft | 6 kts | 328° |
| 2026-05-07 16:26 | 24.44153 | 54.64329 | 90 ft | 10 kts | 30° |
| 2026-05-07 16:26 | 24.44198 | 54.64362 | 88 ft | 13 kts | 34° |
| 2026-05-07 16:27 | 24.44244 | 54.64398 | 88 ft | 3 kts | 36° |
| 2026-05-07 16:27 | 24.44247 | 54.64401 | 88 ft | 0 kts | 36° |
| 2026-05-07 16:27 | 24.44249 | 54.64403 | 88 ft | 2 kts | 36° |
| 2026-05-07 16:27 | 24.44269 | 54.64411 | 89 ft | 4 kts | 5° |
| 2026-05-07 16:28 | 24.44304 | 54.64394 | 87 ft | 7 kts | 322° |
| 2026-05-07 16:28 | 24.44349 | 54.64344 | 89 ft | 11 kts | 307° |
| 2026-05-07 16:28 | 24.44407 | 54.64271 | 87 ft | 14 kts | 326° |
| 2026-05-07 16:28 | 24.44505 | 54.64220 | 89 ft | 10 kts | 336° |
| 2026-05-07 16:29 | 24.44538 | 54.64208 | 88 ft | 4 kts | 4° |
| 2026-05-07 16:29 | 24.44566 | 54.64239 | 89 ft | 8 kts | 53° |
| 2026-05-07 16:29 | 24.44589 | 54.64292 | 89 ft | 0 kts | 68° |